44N weather

Sky Acres Airport
Millbrook, New York, United States

Public forecast

Using degrees Fahrenheit for public forecast. Weather courtesy of forecast.io.

Closest aviation weather report (METAR) to Sky Acres Airport

Closest report is Dutchess County Airport, 8.2 nm (15.1 km) SW. Retrieved 2020/05/26 12:53 UTC (45 minutes ago):

KPOU 261253Z 21005KT 10SM FEW060 19/16 A3019 RMK AO2 SLP219 T01940156

Closest aviation forecast (TAF) to Sky Acres Airport

Closest forecast is Dutchess County Airport, 8.2 nm (15.1 km) SW. Retrieved 2020/05/26 12:30 UTC (1 hour ago):

TAF KPOU 261128Z 2612/2712 00000KT P6SM SCT060 SCT250 FM261500 19005KT P6SM FEW030 FM270400 00000KT P6SM BKN020